Time;durP1;ratioP1;P1;durP2;ratioP2;P2;SDS_P1;SDS_P2;PMS_P1;PMS_P2;Temp;Humidity;BMP_temperature;BMP_pressure;BME280_temperature;BME280_humidity;BME280_pressure;Samples;Min_cycle;Max_cycle;Signal;HPM_P1;HPM_P2
2022/12/31 00:01:58;;;;;;;;;3.00;1.00;;;;;15.21;89.93;100546.78;4955449;28;45413;-54
2022/12/31 00:04:23;;;;;;;;;3.50;1.00;;;;;15.17;89.98;100552.69;4956968;28;45221;-54
2022/12/31 00:06:48;;;;;;;;;0.00;0.00;;;;;15.19;90.25;100556.84;4957316;28;45478;-55
2022/12/31 00:09:14;;;;;;;;;0.00;0.00;;;;;15.15;90.24;100557.38;4955165;28;46167;-53
2022/12/31 00:11:39;;;;;;;;;1.00;1.00;;;;;15.20;89.98;100557.66;4954819;28;45351;-52
2022/12/31 00:14:05;;;;;;;;;3.75;1.00;;;;;15.18;90.21;100563.22;4953455;28;45320;-57
2022/12/31 00:16:35;;;;;;;;;0.25;0.25;;;;;15.17;90.12;100569.59;4955476;28;45372;-59
2022/12/31 00:19:00;;;;;;;;;3.50;0.75;;;;;15.17;90.08;100564.22;4955040;28;46945;-50
2022/12/31 00:21:28;;;;;;;;;3.75;1.00;;;;;15.16;90.53;100554.50;4955138;28;45427;-55
2022/12/31 00:23:54;;;;;;;;;0.75;0.75;;;;;15.06;90.11;100551.25;4955288;28;45444;-54
2022/12/31 00:26:23;;;;;;;;;1.00;1.00;;;;;15.17;89.88;100561.56;4955484;28;45344;-57
2022/12/31 00:28:50;;;;;;;;;2.00;1.00;;;;;15.17;90.02;100568.75;4954967;28;46400;-54
2022/12/31 00:31:27;;;;;;;;;1.00;0.00;;;;;15.19;89.55;100572.91;4954998;28;45366;-54
2022/12/31 00:33:53;;;;;;;;;1.50;0.00;;;;;15.21;89.44;100580.75;4955056;28;45944;-52
2022/12/31 00:36:27;;;;;;;;;0.25;0.25;;;;;15.23;89.10;100584.09;4955513;28;45169;-56
2022/12/31 00:38:54;;;;;;;;;1.00;1.00;;;;;15.24;89.02;100593.81;4954932;28;45315;-53
2022/12/31 00:41:21;;;;;;;;;4.00;0.25;;;;;15.27;88.54;100595.28;4955019;28;45325;-54
2022/12/31 00:43:47;;;;;;;;;4.25;1.00;;;;;15.28;88.63;100594.28;4955038;28;45358;-56
2022/12/31 00:46:13;;;;;;;;;3.00;2.00;;;;;15.24;89.42;100596.47;4954852;28;45477;-55
2022/12/31 00:48:39;;;;;;;;;2.25;1.00;;;;;15.28;89.64;100597.78;4954370;28;46193;-56
2022/12/31 00:51:07;;;;;;;;;1.00;1.00;;;;;15.26;89.61;100605.19;4954529;28;45460;-58
2022/12/31 00:53:33;;;;;;;;;1.50;1.00;;;;;15.29;89.32;100579.84;4953575;28;45489;-54
2022/12/31 00:56:06;;;;;;;;;0.00;0.00;;;;;15.28;89.35;100584.38;4955076;28;45351;-55
2022/12/31 00:58:33;;;;;;;;;1.75;0.00;;;;;15.29;89.11;100583.38;4954641;28;45347;-60
2022/12/31 01:01:06;;;;;;;;;0.25;0.25;;;;;15.28;88.85;100599.63;4954495;28;45300;-53
2022/12/31 01:03:31;;;;;;;;;2.00;1.00;;;;;15.27;88.65;100587.25;4954728;28;45464;-52
2022/12/31 01:05:58;;;;;;;;;0.50;0.00;;;;;15.31;88.35;100591.25;4954921;28;45446;-52
2022/12/31 01:08:24;;;;;;;;;1.25;1.00;;;;;15.31;88.09;100586.72;4954021;28;46040;-56
2022/12/31 01:13:33;;;;;;;;;2.00;1.00;;;;;15.35;87.81;100600.59;4954642;28;45391;-56
2022/12/31 01:16:05;;;;;;;;;0.00;0.00;;;;;15.38;87.93;100601.06;4954476;28;45517;-55
2022/12/31 01:18:31;;;;;;;;;0.50;0.50;;;;;15.40;87.62;100606.22;4954170;28;46478;-57
2022/12/31 01:21:00;;;;;;;;;1.50;1.50;;;;;15.42;87.56;100614.91;4954304;28;46109;-51
2022/12/31 01:23:26;;;;;;;;;1.00;0.00;;;;;15.42;86.88;100601.50;4954678;28;45307;-51
2022/12/31 01:25:51;;;;;;;;;3.00;1.00;;;;;15.46;86.95;100632.28;4957563;28;45238;-51
2022/12/31 01:28:16;;;;;;;;;1.50;0.00;;;;;15.46;86.74;100601.00;4957255;28;46109;-52
2022/12/31 01:30:42;;;;;;;;;0.00;0.00;;;;;15.51;86.60;100613.00;4957050;28;45420;-52
2022/12/31 01:33:07;;;;;;;;;1.00;0.50;;;;;15.45;86.86;100612.72;4957259;28;45378;-56
2022/12/31 01:35:34;;;;;;;;;0.75;0.75;;;;;15.53;86.72;100625.22;4957576;28;45485;-51
2022/12/31 01:38:00;;;;;;;;;1.25;1.00;;;;;15.55;86.80;100625.00;4957157;28;46307;-51
2022/12/31 01:40:25;;;;;;;;;0.00;0.00;;;;;15.58;86.32;100652.31;4957339;28;45756;-51
2022/12/31 01:42:57;;;;;;;;;3.25;1.00;;;;;15.59;86.41;100637.03;4955959;28;45248;-54
2022/12/31 01:45:23;;;;;;;;;0.50;0.00;;;;;15.61;86.34;100656.47;4957531;28;45315;-54
2022/12/31 01:47:56;;;;;;;;;0.00;0.00;;;;;15.60;86.09;100663.69;4956569;28;45860;-53
2022/12/31 01:50:29;;;;;;;;;3.00;0.75;;;;;15.62;85.95;100658.13;4956998;28;45445;-52
2022/12/31 01:52:59;;;;;;;;;1.00;0.25;;;;;15.63;86.12;100671.38;4957351;28;45441;-57
2022/12/31 01:55:41;;;;;;;;;1.50;1.00;;;;;15.63;85.97;100652.63;4957373;28;45309;-50
2022/12/31 01:58:14;;;;;;;;;0.00;0.00;;;;;15.67;85.51;100650.41;4956838;28;45539;-52
2022/12/31 02:00:40;;;;;;;;;0.75;0.75;;;;;15.58;85.68;100638.88;4958652;28;45383;-53
2022/12/31 02:03:07;;;;;;;;;0.00;0.00;;;;;15.66;85.38;100646.06;4957055;28;45346;-52
2022/12/31 02:05:41;;;;;;;;;0.00;0.00;;;;;15.70;85.03;100666.97;4957277;28;45519;-55
2022/12/31 02:08:07;;;;;;;;;1.50;0.50;;;;;15.70;85.25;100650.06;4956572;28;46063;-51
2022/12/31 02:10:32;;;;;;;;;0.25;0.25;;;;;15.74;84.53;100666.63;4956760;28;45334;-53
2022/12/31 02:12:58;;;;;;;;;0.00;0.00;;;;;15.67;84.71;100643.22;4957002;28;45460;-55
2022/12/31 02:15:47;;;;;;;;;1.00;0.00;;;;;15.75;83.83;100649.50;4957023;28;45426;-53
2022/12/31 02:18:38;;;;;;;;;1.00;0.00;;;;;15.80;83.38;100649.78;4958258;28;45395;-51
2022/12/31 02:21:09;;;;;;;;;0.00;0.00;;;;;15.83;82.96;100654.78;4956636;28;45324;-59
2022/12/31 02:23:34;;;;;;;;;0.00;0.00;;;;;15.85;83.07;100664.31;4955575;28;45278;-54
2022/12/31 02:26:36;;;;;;;;;3.00;2.00;;;;;15.87;83.11;100648.03;4956985;28;45325;-53
2022/12/31 02:29:32;;;;;;;;;0.00;0.00;;;;;15.89;82.78;100671.00;4955397;28;46424;-54
2022/12/31 02:32:04;;;;;;;;;1.25;0.00;;;;;15.91;82.19;100662.75;4956600;28;45306;-54
2022/12/31 02:34:36;;;;;;;;;1.00;1.00;;;;;15.92;82.05;100672.47;4956566;28;45466;-55
2022/12/31 02:37:07;;;;;;;;;1.50;0.50;;;;;15.85;82.17;100663.50;4956084;28;45516;-53
2022/12/31 02:39:33;;;;;;;;;0.00;0.00;;;;;15.84;81.26;100656.44;4956622;28;45492;-56
2022/12/31 02:41:59;;;;;;;;;4.50;1.25;;;;;15.98;81.93;100669.06;4956256;28;45308;-57
2022/12/31 02:44:30;;;;;;;;;1.25;1.00;;;;;15.98;81.59;100682.47;4956493;28;45455;-55
2022/12/31 02:47:08;;;;;;;;;0.25;0.25;;;;;16.00;81.46;100690.31;4956654;28;45500;-51
2022/12/31 02:49:50;;;;;;;;;0.25;0.00;;;;;16.00;81.42;100690.31;4956224;28;46328;-53
2022/12/31 02:52:30;;;;;;;;;0.25;0.25;;;;;16.01;80.71;100695.50;4956330;28;45525;-50
2022/12/31 02:55:02;;;;;;;;;0.00;0.00;;;;;16.01;80.71;100687.44;4956328;28;45357;-57
2022/12/31 02:57:39;;;;;;;;;2.75;0.75;;;;;15.98;80.73;100673.59;4956879;28;45188;-52
2022/12/31 03:02:54;;;;;;;;;1.75;1.75;;;;;16.03;80.58;100681.91;4956310;28;45400;-57
2022/12/31 03:05:26;;;;;;;;;3.50;1.25;;;;;16.02;80.24;100694.50;4956175;28;45380;-49
2022/12/31 03:07:52;;;;;;;;;0.50;0.50;;;;;16.03;80.09;100698.84;4956208;28;45303;-57
2022/12/31 03:10:17;;;;;;;;;3.00;0.50;;;;;16.01;79.64;100692.81;4956154;28;45362;-56
2022/12/31 03:12:47;;;;;;;;;1.50;1.25;;;;;16.03;79.98;100708.75;4955917;28;45517;-50
2022/12/31 03:15:21;;;;;;;;;0.75;0.75;;;;;16.02;80.30;100694.50;4956228;28;45351;-52
2022/12/31 03:18:08;;;;;;;;;0.00;0.00;;;;;16.00;79.17;100699.22;4956541;28;45226;-54
2022/12/31 03:23:30;;;;;;;;;2.50;1.00;;;;;16.01;79.38;100702.72;4955885;28;45329;-52
2022/12/31 03:25:56;;;;;;;;;2.00;1.00;;;;;16.02;79.03;100707.09;4956159;28;45312;-49
2022/12/31 03:28:25;;;;;;;;;1.00;1.00;;;;;16.02;79.42;100701.72;4955936;28;45295;-57
2022/12/31 03:30:53;;;;;;;;;1.50;1.50;;;;;16.00;79.22;100718.00;4955945;28;45381;-52
2022/12/31 03:33:20;;;;;;;;;1.75;0.00;;;;;15.98;78.74;100728.09;4955902;28;45271;-53
2022/12/31 03:35:47;;;;;;;;;3.00;1.00;;;;;15.98;78.74;100730.75;4955754;28;45468;-54
2022/12/31 03:38:13;;;;;;;;;0.50;0.00;;;;;15.99;79.31;100723.53;4955906;28;45460;-56
2022/12/31 03:40:42;;;;;;;;;2.00;0.00;;;;;15.98;78.62;100708.47;4955648;28;46251;-54
2022/12/31 03:43:07;;;;;;;;;3.00;0.00;;;;;15.98;78.99;100711.16;4955722;28;45251;-54
2022/12/31 03:45:33;;;;;;;;;2.50;1.00;;;;;15.88;78.40;100698.81;4955852;28;45275;-55
2022/12/31 03:48:00;;;;;;;;;0.25;0.25;;;;;15.96;78.40;100722.88;4954432;28;45353;-57
2022/12/31 03:50:25;;;;;;;;;0.50;0.00;;;;;15.95;78.46;100709.66;4955406;28;46569;-59
2022/12/31 03:52:50;;;;;;;;;1.25;0.75;;;;;15.98;77.97;100729.94;4955457;28;45357;-54
2022/12/31 03:55:16;;;;;;;;;2.25;2.25;;;;;15.97;77.69;100715.69;4955399;28;45830;-53
2022/12/31 03:57:42;;;;;;;;;1.25;1.00;;;;;15.98;78.65;100733.44;4955879;28;45528;-56
2022/12/31 04:00:11;;;;;;;;;1.00;1.00;;;;;15.98;77.58;100727.25;4955377;28;46540;-52
2022/12/31 04:02:36;;;;;;;;;2.25;1.00;;;;;15.97;77.71;100704.97;4955616;28;45339;-53
2022/12/31 04:05:02;;;;;;;;;1.00;1.00;;;;;15.96;77.40;100712.16;4955557;28;45364;-57
2022/12/31 04:07:27;;;;;;;;;3.00;1.25;;;;;16.01;77.15;100716.97;4955760;28;45419;-53
2022/12/31 04:09:52;;;;;;;;;2.25;2.00;;;;;15.97;77.41;100691.53;4955409;28;45367;-53
2022/12/31 04:12:18;;;;;;;;;2.00;1.00;;;;;16.01;77.52;100708.91;4955311;28;45330;-57
2022/12/31 04:14:43;;;;;;;;;1.00;1.00;;;;;16.03;77.00;100709.59;4955425;28;45301;-60
2022/12/31 04:17:08;;;;;;;;;0.50;0.50;;;;;15.94;76.92;100690.06;4955630;28;45397;-58
2022/12/31 04:19:34;;;;;;;;;0.75;0.75;;;;;16.03;77.23;100698.84;4953910;28;46180;-51
2022/12/31 04:21:59;;;;;;;;;0.50;0.25;;;;;16.03;77.11;100701.53;4955437;28;45260;-55
2022/12/31 04:24:24;;;;;;;;;3.00;1.50;;;;;16.03;76.32;100695.34;4955063;28;45386;-52
2022/12/31 04:26:50;;;;;;;;;1.00;1.00;;;;;15.90;76.51;100675.34;4955583;28;45259;-58
2022/12/31 04:29:15;;;;;;;;;1.75;1.25;;;;;16.00;76.36;100676.91;4954845;28;46311;-59
2022/12/31 04:31:41;;;;;;;;;1.50;1.50;;;;;15.95;76.76;100669.41;4955082;28;45368;-59
2022/12/31 04:34:06;;;;;;;;;3.00;2.00;;;;;16.00;76.22;100691.16;4955040;28;45336;-54
2022/12/31 04:36:33;;;;;;;;;2.00;2.00;;;;;15.98;77.02;100697.75;4955012;28;45356;-54
2022/12/31 04:38:58;;;;;;;;;2.25;2.00;;;;;15.99;76.72;100715.50;4954923;28;45354;-57
2022/12/31 04:41:25;;;;;;;;;3.25;0.75;;;;;15.99;76.73;100726.22;4954968;28;45342;-57
2022/12/31 04:43:55;;;;;;;;;3.25;1.00;;;;;15.99;76.42;100726.22;4955198;28;45442;-57
2022/12/31 04:46:32;;;;;;;;;1.00;1.00;;;;;15.89;76.87;100699.66;4955101;28;45627;-54
2022/12/31 04:48:58;;;;;;;;;2.50;1.00;;;;;15.99;76.15;100713.66;4954589;28;46252;-60
2022/12/31 04:51:24;;;;;;;;;2.00;2.00;;;;;15.94;76.38;100722.25;4954960;28;45386;-60
2022/12/31 04:53:50;;;;;;;;;6.00;1.50;;;;;15.99;76.04;100718.19;4954991;28;45334;-55
2022/12/31 04:56:16;;;;;;;;;1.00;1.00;;;;;15.99;76.30;100712.81;4954995;28;45574;-60
2022/12/31 04:58:41;;;;;;;;;2.50;1.00;;;;;16.02;76.50;100715.13;4955553;28;45288;-54
2022/12/31 05:01:07;;;;;;;;;1.00;1.00;;;;;16.03;76.08;100704.22;4957874;28;45304;-59
2022/12/31 05:03:33;;;;;;;;;3.00;1.00;;;;;15.96;76.17;100711.31;4957870;28;45355;-58
2022/12/31 05:06:20;;;;;;;;;4.00;2.00;;;;;16.03;76.13;100717.63;4958276;28;45259;-59
2022/12/31 05:08:46;;;;;;;;;2.25;2.00;;;;;16.04;76.10;100721.97;4957132;28;47206;-60
2022/12/31 05:11:11;;;;;;;;;4.00;1.00;;;;;15.92;76.15;100704.66;4957493;28;45396;-55
2022/12/31 05:13:37;;;;;;;;;1.00;1.00;;;;;16.02;76.22;100737.44;4957661;28;45267;-54
2022/12/31 05:16:04;;;;;;;;;1.00;1.00;;;;;16.02;75.89;100734.75;4957886;28;45446;-58
2022/12/31 05:18:30;;;;;;;;;1.00;1.00;;;;;16.03;75.87;100738.25;4957467;28;46263;-49
2022/12/31 05:20:56;;;;;;;;;2.00;2.00;;;;;16.02;75.75;100753.53;4957651;28;45403;-59
2022/12/31 05:23:21;;;;;;;;;2.50;1.25;;;;;16.03;75.67;100735.59;4957630;28;45306;-55
2022/12/31 05:25:47;;;;;;;;;3.50;1.75;;;;;15.95;75.68;100741.84;4957822;28;45320;-60
2022/12/31 05:28:13;;;;;;;;;2.25;1.00;;;;;16.03;75.54;100743.63;4956225;28;48016;-56
2022/12/31 05:30:38;;;;;;;;;2.75;1.25;;;;;16.03;75.05;100751.69;4957182;28;45553;-57
2022/12/31 05:33:03;;;;;;;;;2.00;2.00;;;;;16.02;75.50;100750.84;4957585;28;45363;-58
2022/12/31 05:35:29;;;;;;;;;2.00;2.00;;;;;15.95;75.48;100748.03;4957796;28;45254;-59
2022/12/31 05:37:54;;;;;;;;;1.75;1.75;;;;;16.01;75.36;100748.34;4957101;28;45934;-57
2022/12/31 05:40:19;;;;;;;;;2.50;1.00;;;;;15.97;75.31;100758.63;4957452;28;45357;-59
2022/12/31 05:42:45;;;;;;;;;1.50;1.00;;;;;16.01;75.31;100764.44;4957255;28;45231;-58
2022/12/31 05:45:14;;;;;;;;;1.00;1.00;;;;;16.02;75.41;100761.59;4957797;28;45289;-59
2022/12/31 05:47:40;;;;;;;;;2.00;2.00;;;;;16.02;75.29;100771.50;4957093;28;45363;-57
2022/12/31 05:50:09;;;;;;;;;1.25;1.25;;;;;16.00;75.15;100768.97;4957155;28;45400;-59
2022/12/31 05:52:35;;;;;;;;;1.00;1.00;;;;;15.99;75.30;100771.84;4957333;28;45436;-50
2022/12/31 05:55:01;;;;;;;;;1.50;1.50;;;;;15.98;75.16;100754.91;4956948;28;45447;-59
2022/12/31 05:57:26;;;;;;;;;1.00;1.00;;;;;15.95;75.34;100763.31;4957223;28;46144;-56
2022/12/31 05:59:52;;;;;;;;;2.75;0.50;;;;;15.96;74.99;100768.50;4957009;28;45454;-59
2022/12/31 06:02:18;;;;;;;;;3.00;1.00;;;;;15.92;75.39;100764.50;4956912;28;45479;-59
2022/12/31 06:04:43;;;;;;;;;1.75;1.75;;;;;15.93;74.88;100760.81;4957240;28;45551;-54
2022/12/31 06:07:09;;;;;;;;;4.00;1.00;;;;;15.95;74.81;100774.03;4956783;28;46220;-57
2022/12/31 06:09:34;;;;;;;;;3.00;1.25;;;;;15.95;75.27;100758.78;4956230;28;45792;-59
2022/12/31 06:11:59;;;;;;;;;0.00;0.00;;;;;15.94;75.43;100756.28;4956343;28;45302;-61
2022/12/31 06:14:25;;;;;;;;;2.00;2.00;;;;;15.93;74.53;100770.72;4957029;28;45414;-55
2022/12/31 06:16:50;;;;;;;;;1.00;1.00;;;;;15.93;74.95;100778.78;4956848;28;45306;-58
2022/12/31 06:19:15;;;;;;;;;2.00;1.25;;;;;15.90;75.17;100782.63;4956607;28;48856;-53
2022/12/31 06:21:41;;;;;;;;;3.00;1.00;;;;;15.92;74.83;100782.44;4956957;28;45629;-55
2022/12/31 06:24:06;;;;;;;;;1.00;1.00;;;;;15.92;75.04;100782.44;4956838;28;45495;-56
2022/12/31 06:26:32;;;;;;;;;2.00;2.00;;;;;15.91;74.71;100775.41;4956579;28;45449;-51
2022/12/31 06:28:57;;;;;;;;;1.00;1.00;;;;;15.91;74.42;100786.16;4956633;28;45251;-52
2022/12/31 06:31:22;;;;;;;;;2.00;2.00;;;;;15.92;74.87;100790.50;4956702;28;45406;-52
2022/12/31 06:33:47;;;;;;;;;2.00;1.75;;;;;15.93;74.99;100786.81;4957168;28;45232;-54
2022/12/31 06:36:14;;;;;;;;;2.75;2.00;;;;;15.95;74.46;100798.19;4956675;28;46305;-49
2022/12/31 06:38:41;;;;;;;;;3.25;1.00;;;;;15.96;74.06;100794.50;4956628;28;45229;-53
2022/12/31 06:41:11;;;;;;;;;4.00;1.25;;;;;15.96;74.16;100789.94;4956934;28;45386;-53
2022/12/31 06:43:37;;;;;;;;;1.50;1.50;;;;;16.01;73.90;100802.00;4956848;28;45268;-53
2022/12/31 06:46:04;;;;;;;;;3.25;1.00;;;;;16.02;74.13;100801.00;4956356;28;46240;-56
2022/12/31 06:48:30;;;;;;;;;2.00;1.50;;;;;16.01;74.19;100793.94;4956357;28;45364;-55
2022/12/31 06:50:55;;;;;;;;;4.00;1.00;;;;;16.02;74.30;100806.38;4956324;28;45466;-50
2022/12/31 06:53:21;;;;;;;;;2.50;2.00;;;;;16.05;73.86;100817.53;4956615;28;45232;-52
2022/12/31 06:55:49;;;;;;;;;1.25;1.25;;;;;16.01;73.87;100802.00;4956409;28;46008;-52
2022/12/31 06:58:16;;;;;;;;;3.25;1.50;;;;;16.00;73.70;100805.69;4956220;28;45466;-52
2022/12/31 07:01:00;;;;;;;;;1.00;1.00;;;;;16.05;73.79;100809.50;4956442;28;45425;-52
2022/12/31 07:03:38;;;;;;;;;2.00;0.25;;;;;16.09;73.62;100826.91;4956381;28;45318;-50
2022/12/31 07:06:12;;;;;;;;;2.00;2.00;;;;;16.11;73.52;100821.38;4956065;28;46321;-50
2022/12/31 07:08:50;;;;;;;;;1.00;1.00;;;;;16.12;73.39;100823.03;4955797;28;45539;-49
2022/12/31 07:11:35;;;;;;;;;5.00;2.00;;;;;16.11;73.39;100824.91;4956291;28;45409;-49
2022/12/31 07:14:16;;;;;;;;;2.25;1.50;;;;;16.12;73.65;100821.19;4956390;28;45296;-50
2022/12/31 07:16:50;;;;;;;;;1.00;1.00;;;;;16.13;73.29;100822.84;4956115;28;46341;-53
2022/12/31 07:19:30;;;;;;;;;1.00;1.00;;;;;16.12;73.00;100810.44;4955969;28;45717;-50
2022/12/31 07:21:57;;;;;;;;;5.00;3.00;;;;;16.12;72.65;100815.81;4955688;28;45394;-51
2022/12/31 07:24:23;;;;;;;;;4.00;2.00;;;;;16.13;72.71;100828.22;4956054;28;45530;-52
2022/12/31 07:27:10;;;;;;;;;4.75;1.00;;;;;16.12;72.75;100809.63;4955747;28;45450;-51
2022/12/31 07:30:00;;;;;;;;;4.00;2.00;;;;;16.05;73.17;100805.97;4955652;28;45403;-51
2022/12/31 07:32:52;;;;;;;;;3.50;2.25;;;;;16.14;72.72;100829.06;4955851;28;45333;-59
2022/12/31 07:35:21;;;;;;;;;3.00;1.00;;;;;16.15;73.09;100845.00;4956271;28;45398;-49
2022/12/31 07:38:06;;;;;;;;;3.50;1.25;;;;;16.13;73.02;100851.53;4955516;28;46235;-48
2022/12/31 07:41:00;;;;;;;;;3.00;1.50;;;;;16.09;73.17;100834.13;4955666;28;45394;-51
2022/12/31 07:43:39;;;;;;;;;2.25;2.00;;;;;16.11;73.03;100864.31;4955823;28;45231;-55
2022/12/31 07:46:16;;;;;;;;;3.00;2.00;;;;;16.09;72.77;100866.31;4955906;28;45237;-51
2022/12/31 07:48:41;;;;;;;;;2.50;2.00;;;;;16.10;73.13;100865.34;4955081;28;45511;-51
2022/12/31 07:51:10;;;;;;;;;5.25;4.00;;;;;16.04;72.80;100861.50;4955534;28;45382;-52
2022/12/31 07:53:36;;;;;;;;;4.00;3.00;;;;;16.04;72.35;100874.09;4955668;28;45288;-59
2022/12/31 07:56:07;;;;;;;;;3.00;3.00;;;;;16.02;72.29;100887.69;4955737;28;45383;-59
2022/12/31 07:58:38;;;;;;;;;5.00;3.00;;;;;16.02;72.62;100911.00;4955378;28;46351;-58
2022/12/31 08:01:05;;;;;;;;;5.00;3.75;;;;;16.00;72.58;100904.97;4955341;28;45349;-53
2022/12/31 08:03:39;;;;;;;;;2.00;2.00;;;;;15.99;72.61;100889.91;4955645;28;45509;-51
2022/12/31 08:06:14;;;;;;;;;4.00;2.67;;;;;15.94;72.59;100893.13;4955793;28;45471;-51
2022/12/31 08:09:01;;;;;;;;;5.33;2.67;;;;;15.91;72.29;100896.16;4955012;28;45346;-51
2022/12/31 08:11:40;;;;;;;;;6.67;4.00;;;;;15.91;72.57;100885.41;4955216;28;45399;-56
2022/12/31 08:14:12;;;;;;;;;2.00;2.00;;;;;15.91;72.26;100882.72;4955518;28;45351;-57
2022/12/31 08:16:37;;;;;;;;;4.00;3.00;;;;;15.90;72.26;100883.75;4955504;28;45363;-54
2022/12/31 08:19:03;;;;;;;;;4.00;2.00;;;;;15.89;71.34;100868.69;4955034;28;45207;-51
2022/12/31 08:21:28;;;;;;;;;5.00;2.00;;;;;15.88;71.98;100877.72;4955145;28;45314;-51
2022/12/31 08:24:25;;;;;;;;;2.00;2.00;;;;;15.84;72.70;100879.91;4955226;28;45367;-57
2022/12/31 08:27:25;;;;;;;;;1.50;1.25;;;;;15.83;72.38;100906.94;4955300;28;45151;-54
2022/12/31 08:30:01;;;;;;;;;5.00;2.67;;;;;15.79;72.13;100895.72;4954712;28;46130;-54
2022/12/31 08:32:56;;;;;;;;;4.00;4.00;;;;;15.77;72.17;100902.28;4954707;28;45381;-49
2022/12/31 08:35:51;;;;;;;;;4.67;3.33;;;;;15.74;72.22;100897.25;4957968;28;45391;-52
2022/12/31 08:38:25;;;;;;;;;3.00;3.00;;;;;15.59;71.64;100870.31;4958218;28;45441;-54
2022/12/31 08:41:07;;;;;;;;;2.00;2.00;;;;;15.74;72.36;100889.22;4957662;28;45984;-58
2022/12/31 08:44:09;;;;;;;;;6.00;3.00;;;;;15.73;72.34;100898.28;4957791;28;45411;-60
2022/12/31 08:47:01;;;;;;;;;3.00;3.00;;;;;15.74;71.77;100916.88;4957824;28;45355;-47
2022/12/31 08:49:29;;;;;;;;;9.67;3.67;;;;;15.70;71.71;100912.88;4960406;28;45401;-56
2022/12/31 08:51:55;;;;;;;;;9.67;4.00;;;;;15.71;71.72;100920.72;4957504;28;45372;-56
2022/12/31 08:54:20;;;;;;;;;6.33;4.67;;;;;15.72;71.96;100916.22;4957604;28;45353;-59
2022/12/31 08:57:21;;;;;;;;;3.50;2.75;;;;;15.73;71.93;100914.38;4957731;28;45273;-53
2022/12/31 08:59:46;;;;;;;;;5.67;3.00;;;;;15.71;71.34;100926.09;4959667;28;45322;-60
2022/12/31 09:02:24;;;;;;;;;4.33;2.33;;;;;15.70;71.68;100923.59;4957576;28;45533;-59
2022/12/31 09:05:10;;;;;;;;;3.00;2.67;;;;;15.64;71.19;100926.97;4957883;28;45382;-58
2022/12/31 09:07:39;;;;;;;;;7.67;2.00;;;;;15.67;71.42;100922.13;4957868;28;45265;-60
2022/12/31 09:10:04;;;;;;;;;3.00;3.00;;;;;15.67;71.58;100927.47;4957767;28;45339;-61
2022/12/31 09:12:42;;;;;;;;;5.00;3.33;;;;;15.67;71.50;100943.56;4957660;28;46112;-59
2022/12/31 09:15:19;;;;;;;;;4.33;3.67;;;;;15.67;71.10;100940.91;4957749;28;45300;-65
2022/12/31 09:17:48;;;;;;;;;5.00;3.33;;;;;15.72;70.74;100932.31;4957574;28;45275;-61
2022/12/31 09:20:22;;;;;;;;;4.00;2.00;;;;;15.73;70.98;100939.34;4957780;28;45361;-59
2022/12/31 09:22:49;;;;;;;;;3.00;3.00;;;;;15.71;70.14;100950.22;4957350;28;46213;-61
2022/12/31 09:25:16;;;;;;;;;3.33;2.00;;;;;15.70;70.82;100931.66;4957299;28;45460;-65
2022/12/31 09:28:04;;;;;;;;;5.00;3.67;;;;;15.75;70.46;100931.13;4957389;28;45402;-64
2022/12/31 09:30:42;;;;;;;;;3.00;3.00;;;;;15.77;70.78;100940.66;4957323;28;45401;-55
2022/12/31 09:33:16;;;;;;;;;5.67;3.33;;;;;15.77;70.47;100929.94;4957199;28;45685;-52
2022/12/31 09:35:57;;;;;;;;;3.67;2.67;;;;;15.79;70.24;100941.31;4957136;28;45336;-53
2022/12/31 09:38:51;;;;;;;;;4.33;3.00;;;;;15.81;70.09;100931.25;4957278;28;45340;-53
2022/12/31 09:41:47;;;;;;;;;5.00;4.00;;;;;15.81;69.56;100935.78;4955839;28;45410;-55
2022/12/31 09:44:49;;;;;;;;;6.67;3.00;;;;;15.81;69.47;100922.38;4957023;28;45335;-55
2022/12/31 09:47:39;;;;;;;;;6.00;2.67;;;;;15.82;69.75;100949.00;4956663;28;45334;-52
2022/12/31 09:50:52;;;;;;;;;3.00;3.00;;;;;15.82;69.59;100938.28;4956710;28;45477;-50
2022/12/31 09:53:40;;;;;;;;;3.67;3.00;;;;;15.84;69.45;100951.50;5016983;28;45499;-55
2022/12/31 09:56:16;;;;;;;;;4.00;4.00;;;;;15.83;69.32;100952.53;4996612;28;46486;-49
2022/12/31 09:58:56;;;;;;;;;2.50;2.00;;;;;15.84;68.88;100955.03;4996863;28;45346;-53
2022/12/31 10:01:35;;;;;;;;;4.25;4.00;;;;;15.87;68.68;100957.38;4996838;28;45388;-52
2022/12/31 10:04:18;;;;;;;;;4.25;2.00;;;;;15.91;68.64;100949.81;4997058;28;45550;-53
2022/12/31 10:07:10;;;;;;;;;6.75;3.75;;;;;15.93;68.43;100931.69;4996738;28;45723;-51
2022/12/31 10:10:03;;;;;;;;;5.00;2.50;;;;;15.95;68.42;100927.81;4996288;28;45493;-47
2022/12/31 10:13:02;;;;;;;;;1.00;1.00;;;;;15.95;68.02;100930.50;4996801;28;45393;-51
2022/12/31 10:15:55;;;;;;;;;4.33;4.33;;;;;15.98;67.97;100940.03;4996898;28;45426;-52
2022/12/31 10:19:11;;;;;;;;;3.00;3.00;;;;;16.00;68.36;100938.00;4996483;28;46347;-49
2022/12/31 10:21:47;;;;;;;;;3.33;3.33;;;;;16.02;67.54;100937.84;4957434;28;45477;-46
2022/12/31 10:24:33;;;;;;;;;5.00;4.00;;;;;16.01;67.35;100912.84;4957547;28;45360;-47
2022/12/31 10:27:06;;;;;;;;;3.33;3.00;;;;;16.03;68.43;100916.19;4957170;28;45280;-46
2022/12/31 10:29:56;;;;;;;;;5.33;4.00;;;;;16.07;67.91;100932.78;4924526;28;46089;-48
2022/12/31 10:32:40;;;;;;;;;2.00;2.00;;;;;16.10;67.68;100930.56;4887627;28;45384;-49
2022/12/31 10:35:37;;;;;;;;;3.00;3.00;;;;;16.14;67.11;100921.16;4935250;28;45480;-49
2022/12/31 10:38:28;;;;;;;;;3.00;3.00;;;;;16.17;66.86;100922.63;4935187;28;45338;-48
2022/12/31 10:41:24;;;;;;;;;2.50;2.00;;;;;16.21;67.14;100923.94;4934816;28;46275;-49
2022/12/31 10:44:32;;;;;;;;;4.00;2.25;;;;;16.26;66.26;100918.88;4934885;28;45345;-49
2022/12/31 10:46:57;;;;;;;;;7.00;3.25;;;;;16.28;66.30;100911.47;4934975;28;45418;-49
2022/12/31 10:49:37;;;;;;;;;3.25;2.00;;;;;16.33;65.77;100908.25;4934549;28;45416;-45
2022/12/31 10:52:27;;;;;;;;;4.00;2.50;;;;;16.37;66.10;100914.94;4934800;28;46180;-47
2022/12/31 10:55:23;;;;;;;;;3.00;3.00;;;;;16.38;65.78;100909.38;4934889;28;45424;-45
2022/12/31 10:58:08;;;;;;;;;3.50;3.50;;;;;16.39;65.25;100894.97;4952850;28;45416;-43
2022/12/31 11:00:59;;;;;;;;;8.00;4.00;;;;;16.42;65.39;100899.94;4956471;28;45578;-46
2022/12/31 11:03:36;;;;;;;;;6.00;3.00;;;;;16.46;64.92;100895.06;5015657;28;46287;-47
2022/12/31 11:06:34;;;;;;;;;3.00;3.00;;;;;16.51;65.29;100895.34;4999019;28;45318;-46
2022/12/31 11:09:14;;;;;;;;;6.50;3.50;;;;;16.67;64.62;100895.19;5015772;28;45479;-45
2022/12/31 11:11:51;;;;;;;;;4.75;3.25;;;;;16.86;64.23;100893.03;5015863;28;45399;-44
2022/12/31 11:14:45;;;;;;;;;5.00;2.50;;;;;17.02;63.27;100900.91;4998731;28;45571;-47
2022/12/31 11:17:25;;;;;;;;;3.75;2.00;;;;;17.17;63.15;100899.06;5015621;28;45304;-45
2022/12/31 11:20:05;;;;;;;;;3.75;2.00;;;;;17.32;62.51;100891.00;5015737;28;45451;-45
2022/12/31 11:22:39;;;;;;;;;6.25;4.75;;;;;17.38;62.12;100882.16;5015634;28;45824;-46
2022/12/31 11:25:10;;;;;;;;;2.75;2.75;;;;;17.41;61.69;100887.16;5015388;28;46032;-45
2022/12/31 11:27:56;;;;;;;;;2.75;2.50;;;;;17.43;61.87;100884.28;5014827;28;45567;-47
2022/12/31 11:30:33;;;;;;;;;5.25;2.75;;;;;17.41;61.44;100872.91;5015596;28;45452;-47
2022/12/31 11:33:30;;;;;;;;;3.00;3.00;;;;;17.38;62.24;100879.47;5015573;28;45412;-46
2022/12/31 11:36:12;;;;;;;;;3.25;2.50;;;;;17.38;60.86;100886.72;5015309;28;46246;-44
2022/12/31 11:38:50;;;;;;;;;3.75;3.75;;;;;17.36;60.50;100880.66;5015340;28;45518;-46
2022/12/31 11:41:24;;;;;;;;;3.75;3.75;;;;;17.38;60.65;100871.41;4967813;28;45365;-47
2022/12/31 11:44:08;;;;;;;;;5.25;3.50;;;;;17.35;61.44;100885.22;4955957;28;45292;-45
2022/12/31 11:46:52;;;;;;;;;2.50;2.00;;;;;17.31;61.19;100892.00;4955402;28;47155;-46
2022/12/31 11:49:33;;;;;;;;;4.75;3.00;;;;;17.27;61.55;100885.31;4955359;28;45275;-45
2022/12/31 11:52:42;;;;;;;;;6.00;3.50;;;;;17.26;61.64;100872.91;4955731;28;45419;-46
2022/12/31 11:55:37;;;;;;;;;5.00;3.25;;;;;17.26;61.21;100878.28;4962358;28;45319;-44
2022/12/31 11:58:15;;;;;;;;;3.50;3.50;;;;;17.23;60.83;100883.19;4955265;28;46257;-45
2022/12/31 12:01:05;;;;;;;;;8.25;4.00;;;;;17.24;60.69;100874.97;4955217;28;45291;-43
2022/12/31 12:03:31;;;;;;;;;7.25;4.00;;;;;17.25;60.83;100862.34;4955521;28;45383;-45